Tizayuca Airport

Jump to: basic info | weather | runways | comments

Related pages: nearby airports | nearby navaids | notams | map

Basic information (top)

Codes: MM28
Location: lon 19.874001, lat -98.943604, elev 7,600 ft / 2,316 m msl
Status: small_airport

Weather (top)

Current conditions for Licenciado Benito Juarez International Airport 27nm (50km) SSW (rec'd 2015/04/27 03:48Z):

MMMX 270348Z 24003KT 12SM SKC 21/02 A3020 NOSIG

Airport forecast for Licenciado Benito Juarez International Airport 27nm (50km) SSW (rec'd 2015/04/26 18:27Z):

TAF MMMX 261724Z 2618/2724 14010KT P6SM SKC TX29/2622Z TN15/2712Z 
      TEMPO 2623/2702 SCT030CB 
     FM270600 14005KT P6SM SKC 
     FM271200 06005KT 5SM HZ SKC 
     FM271800 14010KT P6SM SKC

Runways (top)

01/19: 4,235 x 80 ft (1,291 x 24 m) — paved — not lighted

Latest comments (top)

No comments yet for Tizayuca Airport

More... (top)

See also NOTAMs and nearby airports and navaids, or visit the Tizayuca Airport page at the main OurAirports website..